createdAt,value
2019-05-09T00:01:48.839Z,92.41
2019-05-09T00:06:43.421Z,92.76
2019-05-09T00:11:38.011Z,92.71
2019-05-09T00:16:33.478Z,92.36
2019-05-09T00:21:44.748Z,92.75
2019-05-09T00:26:39.390Z,93.72
2019-05-09T00:31:45.264Z,93.96
2019-05-09T00:36:39.856Z,93.62
2019-05-09T00:41:34.522Z,94.06
2019-05-09T00:46:36.716Z,94.23
2019-05-09T00:51:31.317Z,94.32
2019-05-09T00:56:25.973Z,94.71
2019-05-09T01:01:20.716Z,94.64
2019-05-09T01:06:15.328Z,96.81
2019-05-09T01:11:14.638Z,96.71
2019-05-09T01:16:06.435Z,96.28
2019-05-09T01:21:01.032Z,96.36
2019-05-09T01:25:55.617Z,96.97
2019-05-09T01:30:50.223Z,97.50
2019-05-09T01:35:44.802Z,97.48
2019-05-09T01:40:40.067Z,97.06
2019-05-09T01:45:34.713Z,96.83
2019-05-09T01:50:29.331Z,97.85
2019-05-09T01:55:25.618Z,99.30
2019-05-09T02:00:20.362Z,98.69
2019-05-09T02:05:15.141Z,97.16
2019-05-09T02:10:10.073Z,97.82
2019-05-09T02:15:10.208Z,97.98
2019-05-09T02:20:05.938Z,98.38
2019-05-09T02:25:00.543Z,98.77
2019-05-09T02:29:55.244Z,99.28
2019-05-09T02:34:49.831Z,98.93
2019-05-09T02:39:44.411Z,98.53
2019-05-09T02:44:39.593Z,97.19
2019-05-09T02:49:34.409Z,94.93
2019-05-09T02:54:30.034Z,94.73
2019-05-09T02:59:39.588Z,94.71
2019-05-09T03:04:34.270Z,95.36
2019-05-09T03:09:28.962Z,94.94
2019-05-09T03:14:23.664Z,94.12
2019-05-09T03:19:19.437Z,90.94
2019-05-09T03:24:14.567Z,90.35
2019-05-09T03:29:10.806Z,89.65
2019-05-09T03:34:09.048Z,88.23
2019-05-09T03:39:01.852Z,88.55
2019-05-09T03:43:58.341Z,89.81
2019-05-09T03:49:03.321Z,90.91
2019-05-09T03:53:57.917Z,90.51
2019-05-09T03:58:52.500Z,90.86
2019-05-09T04:03:48.133Z,90.54
2019-05-09T04:08:42.877Z,90.90
2019-05-09T04:13:39.068Z,90.18
2019-05-09T04:18:33.656Z,88.55
2019-05-09T04:23:28.238Z,84.12
2019-05-09T04:28:22.839Z,76.86
2019-05-09T04:33:17.814Z,74.96
2019-05-09T04:38:12.585Z,71.21
2019-05-09T04:43:15.383Z,68.37
2019-05-09T04:48:03.527Z,64.71
2019-05-09T04:52:58.145Z,62.69
2019-05-09T04:57:52.783Z,57.17
2019-05-09T05:02:49.012Z,52.78
2019-05-09T05:07:43.629Z,53.67
2019-05-09T05:12:38.350Z,51.72
2019-05-09T05:17:32.950Z,49.51
2019-05-09T05:22:29.179Z,47.76
2019-05-09T05:27:23.850Z,46.13
2019-05-09T05:32:23.095Z,45.54
2019-05-09T05:37:18.322Z,44.07
2019-05-09T05:42:12.932Z,42.73
2019-05-09T05:47:09.186Z,43.56
2019-05-09T05:52:03.769Z,43.54
2019-05-09T05:56:58.367Z,41.26
2019-05-09T06:01:52.962Z,42.01
2019-05-09T06:06:48.131Z,41.92
2019-05-09T06:11:43.132Z,43.56
2019-05-09T06:16:43.359Z,46.19
2019-05-09T06:21:38.281Z,47.54
2019-05-09T06:26:32.942Z,48.14
2019-05-09T06:31:28.440Z,47.76
2019-05-09T06:36:23.232Z,48.29
2019-05-09T06:41:17.866Z,47.11
2019-05-09T06:46:21.388Z,48.02
2019-05-09T06:51:18.900Z,49.50
2019-05-09T06:56:12.473Z,52.02
2019-05-09T07:01:18.380Z,55.02
2019-05-09T07:06:14.663Z,56.36
2019-05-09T07:11:11.558Z,56.71
2019-05-09T07:16:09.497Z,55.49
2019-05-09T07:21:04.284Z,58.32
2019-05-09T07:26:17.509Z,58.66
2019-05-09T07:31:29.457Z,57.63
2019-05-09T07:36:24.038Z,57.63
2019-05-09T07:41:18.774Z,57.14
2019-05-09T07:46:19.531Z,57.47
2019-05-09T07:51:14.256Z,57.14
2019-05-09T07:56:10.463Z,55.96
2019-05-09T08:01:05.185Z,57.07
2019-05-09T08:06:00.125Z,56.55
2019-05-09T08:10:54.707Z,56.39
2019-05-09T08:15:49.400Z,55.69
2019-05-09T08:20:44.012Z,56.60
2019-05-09T08:25:38.748Z,59.75
2019-05-09T08:30:42.993Z,64.73
2019-05-09T08:35:49.885Z,65.65
2019-05-09T08:40:48.640Z,68.09
2019-05-09T08:45:49.997Z,71.19
2019-05-09T08:50:50.944Z,72.85
2019-05-09T08:55:52.760Z,72.88
2019-05-09T09:01:03.861Z,72.95
2019-05-09T09:05:59.699Z,72.07
2019-05-09T09:11:01.739Z,70.83
2019-05-09T09:16:14.973Z,70.95
2019-05-09T09:21:02.490Z,69.27
2019-05-09T09:25:59.678Z,69.31
2019-05-09T09:30:55.673Z,70.29
2019-05-09T09:35:51.694Z,66.47
2019-05-09T09:40:47.783Z,64.81
2019-05-09T09:45:48.078Z,63.94
2019-05-09T09:50:43.131Z,62.78
2019-05-09T09:55:38.596Z,62.53
2019-05-09T10:00:48.488Z,59.96
2019-05-09T10:05:43.210Z,60.11
2019-05-09T10:10:39.047Z,57.99
2019-05-09T10:15:51.362Z,57.74
2019-05-09T10:20:48.502Z,57.50
2019-05-09T10:25:43.276Z,57.26
2019-05-09T10:30:38.404Z,55.60
2019-05-09T10:35:33.274Z,53.26
2019-05-09T10:40:28.269Z,52.62
2019-05-09T10:45:28.344Z,53.22
2019-05-09T10:50:23.014Z,52.64
2019-05-09T10:55:17.987Z,52.67
2019-05-09T11:00:13.177Z,51.55
2019-05-09T11:05:09.852Z,50.94
2019-05-09T11:10:23.995Z,50.70
2019-05-09T11:15:09.117Z,50.57
2019-05-09T11:20:08.710Z,50.75
2019-05-09T11:25:04.435Z,47.64
2019-05-09T11:29:59.039Z,48.90
2019-05-09T11:34:57.531Z,46.38
2019-05-09T11:39:51.762Z,46.43
2019-05-09T11:44:46.857Z,46.21
2019-05-09T11:49:41.456Z,43.79
2019-05-09T11:54:38.702Z,43.26
2019-05-09T11:59:32.445Z,43.21
2019-05-09T12:04:28.165Z,43.74
2019-05-09T12:09:23.339Z,51.01
2019-05-09T12:14:18.191Z,58.81
2019-05-09T12:19:12.798Z,57.76
2019-05-09T12:24:09.053Z,56.80
2019-05-09T12:29:03.939Z,53.43
2019-05-09T12:33:59.589Z,49.92
2019-05-09T12:38:54.853Z,46.89
2019-05-09T12:43:50.078Z,48.97
2019-05-09T12:48:44.697Z,48.54
2019-05-09T12:53:39.706Z,47.92
2019-05-09T12:58:34.703Z,46.96
2019-05-09T13:03:30.322Z,47.52
2019-05-09T13:08:28.073Z,47.73
2019-05-09T13:13:22.910Z,46.15
2019-05-09T13:18:22.788Z,45.83
2019-05-09T13:23:14.987Z,46.12
2019-05-09T13:28:10.705Z,46.07
2019-05-09T13:33:10.100Z,45.49
2019-05-09T13:38:02.007Z,44.71
2019-05-09T13:42:59.676Z,45.91
2019-05-09T13:47:57.924Z,46.13
2019-05-09T13:52:53.938Z,47.22
2019-05-09T13:57:48.977Z,47.04
2019-05-09T14:02:45.154Z,46.26
2019-05-09T14:07:40.269Z,46.25
2019-05-09T14:12:34.865Z,45.83
2019-05-09T14:17:48.204Z,46.71
2019-05-09T14:22:29.619Z,45.99
2019-05-09T14:27:25.459Z,45.91
2019-05-09T14:32:31.109Z,46.46
2019-05-09T14:37:24.442Z,46.49
2019-05-09T14:42:19.094Z,46.98
2019-05-09T14:47:13.808Z,46.32
2019-05-09T14:52:08.484Z,46.57
2019-05-09T14:57:03.073Z,48.08
2019-05-09T15:01:59.205Z,47.72
2019-05-09T15:06:53.871Z,51.76
2019-05-09T15:11:48.743Z,56.23
2019-05-09T15:16:43.477Z,59.99
2019-05-09T15:21:38.489Z,62.67
2019-05-09T15:26:33.183Z,59.67
2019-05-09T15:31:28.654Z,56.29
2019-05-09T15:36:23.443Z,56.39
2019-05-09T15:41:18.483Z,55.75
2019-05-09T15:46:14.735Z,55.60
2019-05-09T15:51:09.415Z,55.21
2019-05-09T15:56:04.069Z,53.99
2019-05-09T16:00:59.104Z,54.67
2019-05-09T16:05:53.774Z,54.61
2019-05-09T16:10:48.378Z,54.73
2019-05-09T16:15:42.963Z,55.38
2019-05-09T16:20:41.129Z,55.47
2019-05-09T16:25:33.957Z,55.42
2019-05-09T16:30:28.616Z,55.54
2019-05-09T16:35:23.233Z,55.56
2019-05-09T16:40:17.964Z,55.75
2019-05-09T16:45:13.861Z,56.30
2019-05-09T16:50:12.226Z,55.57
2019-05-09T16:55:12.492Z,56.28
2019-05-09T17:00:15.283Z,56.83
2019-05-09T17:05:10.083Z,57.39
2019-05-09T17:10:08.334Z,57.56
2019-05-09T17:15:04.130Z,57.78
2019-05-09T17:19:58.747Z,58.33
2019-05-09T17:24:53.332Z,58.80
2019-05-09T17:29:48.090Z,59.63
2019-05-09T17:34:42.701Z,64.42
2019-05-09T17:39:38.650Z,72.13
2019-05-09T17:44:33.469Z,73.60
2019-05-09T17:49:28.262Z,73.86
2019-05-09T17:54:22.815Z,74.86
2019-05-09T17:59:18.358Z,76.14
2019-05-09T18:04:13.909Z,77.36
2019-05-09T18:09:09.481Z,76.10
2019-05-09T18:14:04.129Z,78.09
2019-05-09T18:19:01.273Z,78.73
2019-05-09T18:23:55.859Z,80.15
2019-05-09T18:28:50.464Z,79.53
2019-05-09T18:33:47.621Z,80.21
2019-05-09T18:38:42.663Z,81.01
2019-05-09T18:43:37.237Z,80.72
2019-05-09T18:48:31.915Z,81.63
2019-05-09T18:53:26.568Z,82.72
2019-05-09T18:58:21.263Z,85.26
2019-05-09T19:03:15.929Z,86.03
2019-05-09T19:08:10.525Z,85.17
2019-05-09T19:13:05.348Z,83.24
2019-05-09T19:18:05.835Z,80.20
2019-05-09T19:23:00.418Z,80.65
2019-05-09T19:27:55.016Z,82.39
2019-05-09T19:32:49.597Z,82.85
2019-05-09T19:37:44.276Z,83.80
2019-05-09T19:42:38.872Z,84.53
2019-05-09T19:47:33.471Z,85.40
2019-05-09T19:52:37.915Z,86.02
2019-05-09T19:57:24.368Z,88.06
2019-05-09T20:02:19.036Z,87.84
2019-05-09T20:07:13.651Z,87.17
2019-05-09T20:12:15.979Z,87.40
2019-05-09T20:17:10.571Z,87.18
2019-05-09T20:22:05.372Z,87.49
2019-05-09T20:27:00.121Z,87.27
2019-05-09T20:31:54.721Z,87.63
2019-05-09T20:36:49.309Z,86.97
2019-05-09T20:41:45.027Z,87.36
2019-05-09T20:46:39.810Z,85.85
2019-05-09T20:51:34.666Z,85.92
2019-05-09T20:56:29.500Z,85.78
2019-05-09T21:01:24.274Z,87.81
2019-05-09T21:06:19.060Z,88.35
2019-05-09T21:11:13.837Z,88.55
2019-05-09T21:16:08.653Z,87.90
2019-05-09T21:21:03.442Z,88.22
2019-05-09T21:25:58.252Z,87.93
2019-05-09T21:30:53.006Z,87.40
2019-05-09T21:35:47.607Z,87.53
2019-05-09T21:40:42.216Z,87.47
2019-05-09T21:45:36.813Z,86.71
2019-05-09T21:50:31.390Z,87.01
2019-05-09T21:55:26.076Z,87.19
2019-05-09T22:00:26.883Z,87.36
2019-05-09T22:05:21.606Z,86.93
2019-05-09T22:10:16.438Z,86.52
2019-05-09T22:15:12.160Z,86.42
2019-05-09T22:20:09.666Z,86.65
2019-05-09T22:25:06.877Z,86.57
2019-05-09T22:30:01.491Z,86.79
2019-05-09T22:34:56.151Z,87.00
2019-05-09T22:39:50.791Z,86.59
2019-05-09T22:44:46.058Z,86.23
2019-05-09T22:49:40.642Z,85.90
2019-05-09T22:54:35.265Z,84.70
2019-05-09T22:59:29.843Z,84.33
2019-05-09T23:04:24.451Z,83.88
2019-05-09T23:09:19.030Z,83.10
2019-05-09T23:14:13.637Z,83.00
2019-05-09T23:19:08.239Z,82.84
2019-05-09T23:24:07.651Z,82.89
2019-05-09T23:29:02.263Z,82.85
2019-05-09T23:33:56.864Z,82.95
2019-05-09T23:39:08.842Z,82.86
2019-05-09T23:44:03.428Z,82.28
2019-05-09T23:48:58.017Z,82.11
2019-05-09T23:53:54.190Z,82.08
2019-05-09T23:59:06.436Z,82.01
